sensor_id;sensor_type;location;lat;lon;timestamp;P1;durP1;ratioP1;P2;durP2;ratioP2
48578;SDS011;34357;51.948;6.132;2023-08-06T00:00:21;17.92;;;13.32;;
48578;SDS011;34357;51.948;6.132;2023-08-06T00:02:47;15.93;;;12.50;;
48578;SDS011;34357;51.948;6.132;2023-08-06T00:05:13;14.57;;;12.38;;
48578;SDS011;34357;51.948;6.132;2023-08-06T00:07:43;16.83;;;12.85;;
48578;SDS011;34357;51.948;6.132;2023-08-06T00:10:09;15.35;;;12.38;;
48578;SDS011;34357;51.948;6.132;2023-08-06T00:12:35;19.60;;;12.88;;
48578;SDS011;34357;51.948;6.132;2023-08-06T00:15:01;19.00;;;13.55;;
48578;SDS011;34357;51.948;6.132;2023-08-06T00:17:27;16.25;;;13.40;;
48578;SDS011;34357;51.948;6.132;2023-08-06T00:19:53;18.30;;;13.25;;
48578;SDS011;34357;51.948;6.132;2023-08-06T00:22:19;19.55;;;13.10;;
48578;SDS011;34357;51.948;6.132;2023-08-06T00:24:44;17.50;;;13.57;;
48578;SDS011;34357;51.948;6.132;2023-08-06T00:27:10;19.88;;;14.13;;
48578;SDS011;34357;51.948;6.132;2023-08-06T00:29:36;17.77;;;13.98;;
48578;SDS011;34357;51.948;6.132;2023-08-06T00:32:01;20.75;;;14.70;;
48578;SDS011;34357;51.948;6.132;2023-08-06T00:34:27;17.30;;;14.30;;
48578;SDS011;34357;51.948;6.132;2023-08-06T00:36:53;24.08;;;15.98;;
48578;SDS011;34357;51.948;6.132;2023-08-06T00:39:19;18.63;;;14.48;;
48578;SDS011;34357;51.948;6.132;2023-08-06T00:41:45;19.58;;;15.90;;
48578;SDS011;34357;51.948;6.132;2023-08-06T00:44:10;20.98;;;15.88;;
48578;SDS011;34357;51.948;6.132;2023-08-06T00:46:36;23.50;;;16.73;;
48578;SDS011;34357;51.948;6.132;2023-08-06T00:49:02;21.30;;;15.98;;
48578;SDS011;34357;51.948;6.132;2023-08-06T00:51:30;20.08;;;16.45;;
48578;SDS011;34357;51.948;6.132;2023-08-06T00:53:56;20.73;;;17.63;;
48578;SDS011;34357;51.948;6.132;2023-08-06T00:56:22;21.27;;;16.50;;
48578;SDS011;34357;51.948;6.132;2023-08-06T00:58:50;24.00;;;18.33;;
48578;SDS011;34357;51.948;6.132;2023-08-06T01:01:16;24.08;;;17.60;;
48578;SDS011;34357;51.948;6.132;2023-08-06T01:03:41;26.98;;;19.05;;
48578;SDS011;34357;51.948;6.132;2023-08-06T01:06:07;26.88;;;18.65;;
48578;SDS011;34357;51.948;6.132;2023-08-06T01:08:49;25.67;;;18.60;;
48578;SDS011;34357;51.948;6.132;2023-08-06T01:14:32;23.20;;;18.58;;
48578;SDS011;34357;51.948;6.132;2023-08-06T01:17:07;22.73;;;18.60;;
48578;SDS011;34357;51.948;6.132;2023-08-06T01:19:34;25.63;;;19.25;;
48578;SDS011;34357;51.948;6.132;2023-08-06T01:22:00;28.50;;;19.88;;
48578;SDS011;34357;51.948;6.132;2023-08-06T01:24:26;25.33;;;20.50;;
48578;SDS011;34357;51.948;6.132;2023-08-06T01:26:55;24.15;;;19.70;;
48578;SDS011;34357;51.948;6.132;2023-08-06T01:29:41;25.67;;;19.83;;
48578;SDS011;34357;51.948;6.132;2023-08-06T01:32:18;28.38;;;21.05;;
48578;SDS011;34357;51.948;6.132;2023-08-06T01:34:46;29.98;;;22.83;;
48578;SDS011;34357;51.948;6.132;2023-08-06T01:37:13;26.95;;;22.02;;
48578;SDS011;34357;51.948;6.132;2023-08-06T01:39:40;30.02;;;22.60;;
48578;SDS011;34357;51.948;6.132;2023-08-06T01:42:07;29.02;;;22.35;;
48578;SDS011;34357;51.948;6.132;2023-08-06T01:44:33;27.58;;;23.00;;
48578;SDS011;34357;51.948;6.132;2023-08-06T01:46:59;32.25;;;23.15;;
48578;SDS011;34357;51.948;6.132;2023-08-06T01:49:25;29.95;;;23.63;;
48578;SDS011;34357;51.948;6.132;2023-08-06T01:51:51;29.17;;;23.88;;
48578;SDS011;34357;51.948;6.132;2023-08-06T01:54:17;29.15;;;23.77;;
48578;SDS011;34357;51.948;6.132;2023-08-06T01:56:43;30.17;;;24.35;;
48578;SDS011;34357;51.948;6.132;2023-08-06T01:59:09;27.65;;;22.65;;
48578;SDS011;34357;51.948;6.132;2023-08-06T02:01:35;34.67;;;25.35;;
48578;SDS011;34357;51.948;6.132;2023-08-06T02:04:01;31.63;;;23.60;;
48578;SDS011;34357;51.948;6.132;2023-08-06T02:06:27;27.83;;;22.55;;
48578;SDS011;34357;51.948;6.132;2023-08-06T02:08:54;25.90;;;22.77;;
48578;SDS011;34357;51.948;6.132;2023-08-06T02:11:19;29.10;;;22.75;;
48578;SDS011;34357;51.948;6.132;2023-08-06T02:13:45;26.63;;;22.27;;
48578;SDS011;34357;51.948;6.132;2023-08-06T02:16:16;28.45;;;22.13;;
48578;SDS011;34357;51.948;6.132;2023-08-06T02:18:41;29.10;;;22.50;;
48578;SDS011;34357;51.948;6.132;2023-08-06T02:21:07;26.88;;;20.63;;
48578;SDS011;34357;51.948;6.132;2023-08-06T02:23:33;28.70;;;21.58;;
48578;SDS011;34357;51.948;6.132;2023-08-06T02:26:02;23.75;;;19.35;;
48578;SDS011;34357;51.948;6.132;2023-08-06T02:28:29;23.27;;;19.13;;
48578;SDS011;34357;51.948;6.132;2023-08-06T02:30:55;21.98;;;18.52;;
48578;SDS011;34357;51.948;6.132;2023-08-06T02:33:21;23.65;;;18.67;;
48578;SDS011;34357;51.948;6.132;2023-08-06T02:35:47;26.05;;;19.30;;
48578;SDS011;34357;51.948;6.132;2023-08-06T02:38:12;25.38;;;18.40;;
48578;SDS011;34357;51.948;6.132;2023-08-06T02:40:46;23.30;;;19.27;;
48578;SDS011;34357;51.948;6.132;2023-08-06T02:43:12;22.60;;;17.83;;
48578;SDS011;34357;51.948;6.132;2023-08-06T02:45:38;29.77;;;19.05;;
48578;SDS011;34357;51.948;6.132;2023-08-06T02:48:04;25.27;;;18.63;;
48578;SDS011;34357;51.948;6.132;2023-08-06T02:50:30;24.13;;;18.83;;
48578;SDS011;34357;51.948;6.132;2023-08-06T02:52:56;23.85;;;19.08;;
48578;SDS011;34357;51.948;6.132;2023-08-06T02:55:22;32.08;;;18.33;;
48578;SDS011;34357;51.948;6.132;2023-08-06T02:57:48;24.63;;;19.30;;
48578;SDS011;34357;51.948;6.132;2023-08-06T03:00:14;25.73;;;18.48;;
48578;SDS011;34357;51.948;6.132;2023-08-06T03:02:40;25.30;;;19.45;;
48578;SDS011;34357;51.948;6.132;2023-08-06T03:05:20;27.20;;;19.50;;
48578;SDS011;34357;51.948;6.132;2023-08-06T03:07:47;24.80;;;18.52;;
48578;SDS011;34357;51.948;6.132;2023-08-06T03:10:18;23.33;;;17.98;;
48578;SDS011;34357;51.948;6.132;2023-08-06T03:12:45;23.42;;;18.83;;
48578;SDS011;34357;51.948;6.132;2023-08-06T03:15:11;26.13;;;19.08;;
48578;SDS011;34357;51.948;6.132;2023-08-06T03:17:39;22.55;;;18.65;;
48578;SDS011;34357;51.948;6.132;2023-08-06T03:20:07;23.85;;;18.52;;
48578;SDS011;34357;51.948;6.132;2023-08-06T03:22:33;26.15;;;19.48;;
48578;SDS011;34357;51.948;6.132;2023-08-06T03:24:59;24.42;;;19.83;;
48578;SDS011;34357;51.948;6.132;2023-08-06T03:27:26;23.83;;;18.30;;
48578;SDS011;34357;51.948;6.132;2023-08-06T03:29:52;27.48;;;19.42;;
48578;SDS011;34357;51.948;6.132;2023-08-06T03:32:20;28.23;;;18.90;;
48578;SDS011;34357;51.948;6.132;2023-08-06T03:34:47;26.98;;;19.58;;
48578;SDS011;34357;51.948;6.132;2023-08-06T03:37:13;25.25;;;19.67;;
48578;SDS011;34357;51.948;6.132;2023-08-06T03:39:39;23.42;;;18.55;;
48578;SDS011;34357;51.948;6.132;2023-08-06T03:42:05;25.70;;;19.42;;
48578;SDS011;34357;51.948;6.132;2023-08-06T03:44:31;26.30;;;19.60;;
48578;SDS011;34357;51.948;6.132;2023-08-06T03:46:57;26.58;;;17.75;;
48578;SDS011;34357;51.948;6.132;2023-08-06T03:49:23;22.30;;;17.08;;
48578;SDS011;34357;51.948;6.132;2023-08-06T03:51:48;23.55;;;19.27;;
48578;SDS011;34357;51.948;6.132;2023-08-06T03:54:14;25.88;;;19.27;;
48578;SDS011;34357;51.948;6.132;2023-08-06T03:56:40;21.05;;;17.10;;
48578;SDS011;34357;51.948;6.132;2023-08-06T03:59:06;20.95;;;17.25;;
48578;SDS011;34357;51.948;6.132;2023-08-06T04:01:32;23.38;;;17.85;;
48578;SDS011;34357;51.948;6.132;2023-08-06T04:03:58;24.73;;;18.15;;
48578;SDS011;34357;51.948;6.132;2023-08-06T04:06:23;23.98;;;18.17;;
48578;SDS011;34357;51.948;6.132;2023-08-06T04:08:49;24.02;;;17.20;;
48578;SDS011;34357;51.948;6.132;2023-08-06T04:11:15;23.98;;;18.67;;
48578;SDS011;34357;51.948;6.132;2023-08-06T04:13:44;22.98;;;19.02;;
48578;SDS011;34357;51.948;6.132;2023-08-06T04:16:10;24.77;;;18.83;;
48578;SDS011;34357;51.948;6.132;2023-08-06T04:18:36;22.30;;;17.70;;
48578;SDS011;34357;51.948;6.132;2023-08-06T04:21:02;24.02;;;17.35;;
48578;SDS011;34357;51.948;6.132;2023-08-06T04:23:27;24.45;;;18.05;;
48578;SDS011;34357;51.948;6.132;2023-08-06T04:25:57;25.15;;;19.00;;
48578;SDS011;34357;51.948;6.132;2023-08-06T04:28:26;24.73;;;18.15;;
48578;SDS011;34357;51.948;6.132;2023-08-06T04:30:52;23.75;;;18.25;;
48578;SDS011;34357;51.948;6.132;2023-08-06T04:33:19;25.35;;;19.90;;
48578;SDS011;34357;51.948;6.132;2023-08-06T04:35:46;21.85;;;18.25;;
48578;SDS011;34357;51.948;6.132;2023-08-06T04:38:12;23.48;;;18.42;;
48578;SDS011;34357;51.948;6.132;2023-08-06T04:40:38;22.42;;;17.67;;
48578;SDS011;34357;51.948;6.132;2023-08-06T04:43:04;23.13;;;18.88;;
48578;SDS011;34357;51.948;6.132;2023-08-06T04:45:33;18.98;;;16.42;;
48578;SDS011;34357;51.948;6.132;2023-08-06T04:47:58;22.30;;;17.95;;
48578;SDS011;34357;51.948;6.132;2023-08-06T04:50:24;20.25;;;15.93;;
48578;SDS011;34357;51.948;6.132;2023-08-06T04:52:50;25.23;;;17.30;;
48578;SDS011;34357;51.948;6.132;2023-08-06T04:55:15;21.35;;;17.33;;
48578;SDS011;34357;51.948;6.132;2023-08-06T04:57:41;21.45;;;16.85;;
48578;SDS011;34357;51.948;6.132;2023-08-06T05:00:07;19.30;;;15.80;;
48578;SDS011;34357;51.948;6.132;2023-08-06T05:02:33;20.33;;;15.55;;
48578;SDS011;34357;51.948;6.132;2023-08-06T05:04:59;23.17;;;16.85;;
48578;SDS011;34357;51.948;6.132;2023-08-06T05:07:25;20.75;;;15.70;;
48578;SDS011;34357;51.948;6.132;2023-08-06T05:09:51;19.52;;;15.80;;
48578;SDS011;34357;51.948;6.132;2023-08-06T05:12:16;20.77;;;16.20;;
48578;SDS011;34357;51.948;6.132;2023-08-06T05:14:42;22.20;;;15.73;;
48578;SDS011;34357;51.948;6.132;2023-08-06T05:17:08;22.33;;;16.55;;
48578;SDS011;34357;51.948;6.132;2023-08-06T05:19:33;18.92;;;16.33;;
48578;SDS011;34357;51.948;6.132;2023-08-06T05:21:59;21.80;;;17.83;;
48578;SDS011;34357;51.948;6.132;2023-08-06T05:24:26;21.85;;;17.17;;
48578;SDS011;34357;51.948;6.132;2023-08-06T05:26:51;24.77;;;19.08;;
48578;SDS011;34357;51.948;6.132;2023-08-06T05:29:17;24.33;;;18.98;;
48578;SDS011;34357;51.948;6.132;2023-08-06T05:31:43;23.63;;;19.45;;
48578;SDS011;34357;51.948;6.132;2023-08-06T05:34:09;24.67;;;19.85;;
48578;SDS011;34357;51.948;6.132;2023-08-06T05:36:34;24.27;;;20.25;;
48578;SDS011;34357;51.948;6.132;2023-08-06T05:39:00;29.23;;;21.95;;
48578;SDS011;34357;51.948;6.132;2023-08-06T05:41:25;29.27;;;23.35;;
48578;SDS011;34357;51.948;6.132;2023-08-06T05:43:51;29.50;;;22.08;;
48578;SDS011;34357;51.948;6.132;2023-08-06T05:46:17;25.30;;;20.83;;
48578;SDS011;34357;51.948;6.132;2023-08-06T05:48:43;25.48;;;21.20;;
48578;SDS011;34357;51.948;6.132;2023-08-06T05:51:08;29.05;;;22.67;;
48578;SDS011;34357;51.948;6.132;2023-08-06T05:53:34;26.98;;;23.13;;
48578;SDS011;34357;51.948;6.132;2023-08-06T05:56:00;27.40;;;24.00;;
48578;SDS011;34357;51.948;6.132;2023-08-06T05:58:25;31.20;;;24.58;;
48578;SDS011;34357;51.948;6.132;2023-08-06T06:00:54;29.08;;;24.30;;
48578;SDS011;34357;51.948;6.132;2023-08-06T06:03:19;29.58;;;25.63;;
48578;SDS011;34357;51.948;6.132;2023-08-06T06:05:45;35.42;;;25.73;;
48578;SDS011;34357;51.948;6.132;2023-08-06T06:08:11;34.13;;;25.02;;
48578;SDS011;34357;51.948;6.132;2023-08-06T06:10:37;27.38;;;24.40;;
48578;SDS011;34357;51.948;6.132;2023-08-06T06:13:02;29.45;;;25.13;;
48578;SDS011;34357;51.948;6.132;2023-08-06T06:15:28;29.60;;;25.98;;
48578;SDS011;34357;51.948;6.132;2023-08-06T06:17:54;30.85;;;25.50;;
48578;SDS011;34357;51.948;6.132;2023-08-06T06:20:20;28.77;;;25.67;;
48578;SDS011;34357;51.948;6.132;2023-08-06T06:22:45;29.52;;;24.80;;
48578;SDS011;34357;51.948;6.132;2023-08-06T06:25:11;32.17;;;26.23;;
48578;SDS011;34357;51.948;6.132;2023-08-06T06:27:37;29.15;;;25.77;;
48578;SDS011;34357;51.948;6.132;2023-08-06T06:30:02;31.98;;;27.75;;
48578;SDS011;34357;51.948;6.132;2023-08-06T06:32:29;30.35;;;26.35;;
48578;SDS011;34357;51.948;6.132;2023-08-06T06:34:55;28.20;;;24.50;;
48578;SDS011;34357;51.948;6.132;2023-08-06T06:37:20;29.20;;;24.20;;
48578;SDS011;34357;51.948;6.132;2023-08-06T06:39:46;30.35;;;25.70;;
48578;SDS011;34357;51.948;6.132;2023-08-06T06:42:12;31.17;;;26.33;;
48578;SDS011;34357;51.948;6.132;2023-08-06T06:44:43;35.35;;;26.67;;
48578;SDS011;34357;51.948;6.132;2023-08-06T06:47:08;30.35;;;25.92;;
48578;SDS011;34357;51.948;6.132;2023-08-06T06:49:34;29.67;;;25.08;;
48578;SDS011;34357;51.948;6.132;2023-08-06T06:52:00;31.33;;;25.20;;
48578;SDS011;34357;51.948;6.132;2023-08-06T06:54:25;30.42;;;27.20;;
48578;SDS011;34357;51.948;6.132;2023-08-06T06:56:51;30.02;;;26.23;;
48578;SDS011;34357;51.948;6.132;2023-08-06T06:59:17;27.00;;;24.10;;
48578;SDS011;34357;51.948;6.132;2023-08-06T07:01:42;28.90;;;24.38;;
48578;SDS011;34357;51.948;6.132;2023-08-06T07:04:08;28.63;;;25.52;;
48578;SDS011;34357;51.948;6.132;2023-08-06T07:06:34;28.85;;;24.60;;
48578;SDS011;34357;51.948;6.132;2023-08-06T07:08:59;28.42;;;24.98;;
48578;SDS011;34357;51.948;6.132;2023-08-06T07:11:25;28.10;;;24.40;;
48578;SDS011;34357;51.948;6.132;2023-08-06T07:13:56;28.25;;;25.25;;
48578;SDS011;34357;51.948;6.132;2023-08-06T07:16:23;29.02;;;25.75;;
48578;SDS011;34357;51.948;6.132;2023-08-06T07:18:49;31.08;;;26.35;;
48578;SDS011;34357;51.948;6.132;2023-08-06T07:21:16;28.55;;;24.10;;
48578;SDS011;34357;51.948;6.132;2023-08-06T07:23:41;28.80;;;25.23;;
48578;SDS011;34357;51.948;6.132;2023-08-06T07:26:07;27.65;;;24.65;;
48578;SDS011;34357;51.948;6.132;2023-08-06T07:28:34;28.20;;;25.20;;
48578;SDS011;34357;51.948;6.132;2023-08-06T07:31:00;29.55;;;26.30;;
48578;SDS011;34357;51.948;6.132;2023-08-06T07:33:27;29.70;;;26.50;;
48578;SDS011;34357;51.948;6.132;2023-08-06T07:35:53;33.15;;;26.42;;
48578;SDS011;34357;51.948;6.132;2023-08-06T07:38:19;29.27;;;26.25;;
48578;SDS011;34357;51.948;6.132;2023-08-06T07:40:44;31.05;;;27.45;;
48578;SDS011;34357;51.948;6.132;2023-08-06T07:43:10;36.25;;;26.98;;
48578;SDS011;34357;51.948;6.132;2023-08-06T07:45:36;28.65;;;25.55;;
48578;SDS011;34357;51.948;6.132;2023-08-06T07:48:02;27.52;;;24.17;;
48578;SDS011;34357;51.948;6.132;2023-08-06T07:50:29;25.92;;;23.15;;
48578;SDS011;34357;51.948;6.132;2023-08-06T07:52:54;28.40;;;22.95;;
48578;SDS011;34357;51.948;6.132;2023-08-06T07:55:20;26.17;;;23.00;;
48578;SDS011;34357;51.948;6.132;2023-08-06T07:57:46;26.00;;;23.20;;
48578;SDS011;34357;51.948;6.132;2023-08-06T08:00:12;27.38;;;24.50;;
48578;SDS011;34357;51.948;6.132;2023-08-06T08:02:38;28.48;;;25.60;;
48578;SDS011;34357;51.948;6.132;2023-08-06T08:05:03;29.10;;;26.10;;
48578;SDS011;34357;51.948;6.132;2023-08-06T08:07:30;32.13;;;25.80;;
48578;SDS011;34357;51.948;6.132;2023-08-06T08:09:56;24.10;;;21.50;;
48578;SDS011;34357;51.948;6.132;2023-08-06T08:12:22;23.77;;;21.27;;
48578;SDS011;34357;51.948;6.132;2023-08-06T08:14:48;24.67;;;22.17;;
48578;SDS011;34357;51.948;6.132;2023-08-06T08:17:13;24.60;;;21.52;;
48578;SDS011;34357;51.948;6.132;2023-08-06T08:19:42;28.15;;;23.83;;
48578;SDS011;34357;51.948;6.132;2023-08-06T08:22:08;23.42;;;21.13;;
48578;SDS011;34357;51.948;6.132;2023-08-06T08:24:34;24.83;;;21.40;;
48578;SDS011;34357;51.948;6.132;2023-08-06T08:27:00;25.50;;;22.63;;
48578;SDS011;34357;51.948;6.132;2023-08-06T08:29:26;25.30;;;21.83;;
48578;SDS011;34357;51.948;6.132;2023-08-06T08:31:51;24.30;;;21.85;;
48578;SDS011;34357;51.948;6.132;2023-08-06T08:34:17;24.13;;;21.67;;
48578;SDS011;34357;51.948;6.132;2023-08-06T08:36:43;24.73;;;22.23;;
48578;SDS011;34357;51.948;6.132;2023-08-06T08:39:12;23.33;;;20.92;;
48578;SDS011;34357;51.948;6.132;2023-08-06T08:41:39;25.60;;;22.90;;
48578;SDS011;34357;51.948;6.132;2023-08-06T08:44:07;24.58;;;22.10;;
48578;SDS011;34357;51.948;6.132;2023-08-06T08:46:35;24.90;;;21.25;;
48578;SDS011;34357;51.948;6.132;2023-08-06T08:49:03;24.00;;;21.50;;
48578;SDS011;34357;51.948;6.132;2023-08-06T08:51:30;22.98;;;20.77;;
48578;SDS011;34357;51.948;6.132;2023-08-06T08:53:56;25.42;;;20.40;;
48578;SDS011;34357;51.948;6.132;2023-08-06T08:56:23;23.08;;;20.13;;
48578;SDS011;34357;51.948;6.132;2023-08-06T08:58:49;22.65;;;18.83;;
48578;SDS011;34357;51.948;6.132;2023-08-06T09:01:15;21.33;;;19.17;;
48578;SDS011;34357;51.948;6.132;2023-08-06T09:03:42;19.75;;;17.00;;
48578;SDS011;34357;51.948;6.132;2023-08-06T09:06:09;18.77;;;16.98;;
48578;SDS011;34357;51.948;6.132;2023-08-06T09:08:37;20.35;;;18.17;;
48578;SDS011;34357;51.948;6.132;2023-08-06T09:11:08;20.05;;;17.48;;
48578;SDS011;34357;51.948;6.132;2023-08-06T09:13:38;19.48;;;16.83;;
48578;SDS011;34357;51.948;6.132;2023-08-06T09:16:04;18.77;;;16.85;;
48578;SDS011;34357;51.948;6.132;2023-08-06T09:18:30;16.73;;;14.27;;
48578;SDS011;34357;51.948;6.132;2023-08-06T09:20:56;15.05;;;13.50;;
48578;SDS011;34357;51.948;6.132;2023-08-06T09:23:29;18.38;;;14.40;;
48578;SDS011;34357;51.948;6.132;2023-08-06T09:25:57;17.52;;;13.25;;
48578;SDS011;34357;51.948;6.132;2023-08-06T09:28:23;14.40;;;12.98;;
48578;SDS011;34357;51.948;6.132;2023-08-06T09:30:49;15.00;;;13.07;;
48578;SDS011;34357;51.948;6.132;2023-08-06T09:33:17;14.25;;;12.77;;
48578;SDS011;34357;51.948;6.132;2023-08-06T09:35:45;10.93;;;9.77;;
48578;SDS011;34357;51.948;6.132;2023-08-06T09:38:12;11.75;;;10.27;;
48578;SDS011;34357;51.948;6.132;2023-08-06T09:40:38;13.65;;;8.90;;
48578;SDS011;34357;51.948;6.132;2023-08-06T09:43:05;10.18;;;8.80;;
48578;SDS011;34357;51.948;6.132;2023-08-06T09:45:31;9.20;;;8.30;;
48578;SDS011;34357;51.948;6.132;2023-08-06T09:47:59;10.00;;;7.30;;
48578;SDS011;34357;51.948;6.132;2023-08-06T09:50:31;13.60;;;8.65;;
48578;SDS011;34357;51.948;6.132;2023-08-06T09:53:01;9.23;;;7.40;;
48578;SDS011;34357;51.948;6.132;2023-08-06T09:55:31;8.40;;;7.25;;
48578;SDS011;34357;51.948;6.132;2023-08-06T09:57:58;13.25;;;9.60;;
48578;SDS011;34357;51.948;6.132;2023-08-06T10:00:24;11.77;;;10.70;;
48578;SDS011;34357;51.948;6.132;2023-08-06T10:02:50;15.27;;;11.63;;
48578;SDS011;34357;51.948;6.132;2023-08-06T10:05:20;14.52;;;12.18;;
48578;SDS011;34357;51.948;6.132;2023-08-06T10:07:46;14.38;;;12.88;;
48578;SDS011;34357;51.948;6.132;2023-08-06T10:10:14;13.18;;;11.98;;
48578;SDS011;34357;51.948;6.132;2023-08-06T10:12:41;14.10;;;12.60;;
48578;SDS011;34357;51.948;6.132;2023-08-06T10:15:16;14.68;;;13.18;;
48578;SDS011;34357;51.948;6.132;2023-08-06T10:17:45;16.52;;;14.45;;
48578;SDS011;34357;51.948;6.132;2023-08-06T10:20:13;16.67;;;14.90;;
48578;SDS011;34357;51.948;6.132;2023-08-06T10:22:43;17.13;;;15.43;;
48578;SDS011;34357;51.948;6.132;2023-08-06T10:25:15;19.77;;;15.60;;
48578;SDS011;34357;51.948;6.132;2023-08-06T10:27:53;17.80;;;15.85;;
48578;SDS011;34357;51.948;6.132;2023-08-06T10:32:55;18.10;;;16.20;;
48578;SDS011;34357;51.948;6.132;2023-08-06T10:38:04;18.15;;;16.35;;
48578;SDS011;34357;51.948;6.132;2023-08-06T10:40:32;20.10;;;18.02;;
48578;SDS011;34357;51.948;6.132;2023-08-06T10:42:59;19.77;;;17.17;;
48578;SDS011;34357;51.948;6.132;2023-08-06T10:45:25;20.40;;;18.42;;
48578;SDS011;34357;51.948;6.132;2023-08-06T10:47:54;22.13;;;19.92;;
48578;SDS011;34357;51.948;6.132;2023-08-06T10:50:24;24.08;;;20.38;;
48578;SDS011;34357;51.948;6.132;2023-08-06T10:52:50;23.33;;;21.05;;
48578;SDS011;34357;51.948;6.132;2023-08-06T10:55:26;20.88;;;18.75;;
48578;SDS011;34357;51.948;6.132;2023-08-06T10:57:53;22.30;;;20.00;;
48578;SDS011;34357;51.948;6.132;2023-08-06T11:00:20;18.33;;;16.45;;
48578;SDS011;34357;51.948;6.132;2023-08-06T11:02:47;18.30;;;16.40;;
48578;SDS011;34357;51.948;6.132;2023-08-06T11:05:14;20.85;;;18.65;;
48578;SDS011;34357;51.948;6.132;2023-08-06T11:07:40;26.00;;;22.85;;
48578;SDS011;34357;51.948;6.132;2023-08-06T11:10:07;27.67;;;24.25;;
48578;SDS011;34357;51.948;6.132;2023-08-06T11:12:34;32.08;;;25.42;;
48578;SDS011;34357;51.948;6.132;2023-08-06T11:15:01;22.02;;;12.65;;
48578;SDS011;34357;51.948;6.132;2023-08-06T11:17:28;15.77;;;7.00;;
48578;SDS011;34357;51.948;6.132;2023-08-06T11:19:55;9.10;;;3.60;;
48578;SDS011;34357;51.948;6.132;2023-08-06T11:22:21;7.22;;;3.58;;
48578;SDS011;34357;51.948;6.132;2023-08-06T11:24:50;4.85;;;2.88;;
48578;SDS011;34357;51.948;6.132;2023-08-06T11:27:16;8.82;;;2.95;;
48578;SDS011;34357;51.948;6.132;2023-08-06T11:29:43;2.33;;;1.80;;
48578;SDS011;34357;51.948;6.132;2023-08-06T11:32:09;3.83;;;2.20;;
48578;SDS011;34357;51.948;6.132;2023-08-06T11:34:36;2.20;;;1.60;;
48578;SDS011;34357;51.948;6.132;2023-08-06T11:37:05;7.20;;;1.70;;
48578;SDS011;34357;51.948;6.132;2023-08-06T11:39:34;4.55;;;1.60;;
48578;SDS011;34357;51.948;6.132;2023-08-06T11:42:04;1.95;;;1.25;;
48578;SDS011;34357;51.948;6.132;2023-08-06T11:44:31;4.40;;;1.48;;
48578;SDS011;34357;51.948;6.132;2023-08-06T11:46:59;1.80;;;1.40;;
48578;SDS011;34357;51.948;6.132;2023-08-06T11:54:59;2.15;;;1.67;;
48578;SDS011;34357;51.948;6.132;2023-08-06T11:57:29;2.92;;;1.80;;
48578;SDS011;34357;51.948;6.132;2023-08-06T12:00:01;2.63;;;1.50;;
48578;SDS011;34357;51.948;6.132;2023-08-06T12:02:45;8.65;;;1.60;;
48578;SDS011;34357;51.948;6.132;2023-08-06T12:05:15;2.20;;;1.58;;
48578;SDS011;34357;51.948;6.132;2023-08-06T12:07:50;2.72;;;1.90;;
48578;SDS011;34357;51.948;6.132;2023-08-06T12:10:20;5.93;;;2.70;;
48578;SDS011;34357;51.948;6.132;2023-08-06T12:12:47;6.28;;;2.90;;
48578;SDS011;34357;51.948;6.132;2023-08-06T12:15:13;3.15;;;2.38;;
48578;SDS011;34357;51.948;6.132;2023-08-06T12:17:39;2.08;;;1.80;;
48578;SDS011;34357;51.948;6.132;2023-08-06T12:20:06;3.40;;;2.10;;
48578;SDS011;34357;51.948;6.132;2023-08-06T12:22:33;4.43;;;2.28;;
48578;SDS011;34357;51.948;6.132;2023-08-06T12:25:04;2.72;;;2.20;;
48578;SDS011;34357;51.948;6.132;2023-08-06T12:27:36;4.95;;;2.47;;
48578;SDS011;34357;51.948;6.132;2023-08-06T12:30:04;3.10;;;2.40;;
48578;SDS011;34357;51.948;6.132;2023-08-06T12:32:31;4.82;;;3.15;;
48578;SDS011;34357;51.948;6.132;2023-08-06T12:34:56;4.93;;;3.08;;
48578;SDS011;34357;51.948;6.132;2023-08-06T12:37:23;6.00;;;3.30;;
48578;SDS011;34357;51.948;6.132;2023-08-06T12:39:50;5.45;;;3.60;;
48578;SDS011;34357;51.948;6.132;2023-08-06T12:42:16;4.40;;;3.63;;
48578;SDS011;34357;51.948;6.132;2023-08-06T12:44:41;6.60;;;4.13;;
48578;SDS011;34357;51.948;6.132;2023-08-06T12:47:07;8.68;;;4.60;;
48578;SDS011;34357;51.948;6.132;2023-08-06T12:49:33;7.85;;;4.85;;
48578;SDS011;34357;51.948;6.132;2023-08-06T12:51:59;6.88;;;5.28;;
48578;SDS011;34357;51.948;6.132;2023-08-06T12:54:25;6.22;;;5.38;;
48578;SDS011;34357;51.948;6.132;2023-08-06T12:56:51;7.95;;;6.15;;
48578;SDS011;34357;51.948;6.132;2023-08-06T12:59:17;11.85;;;7.25;;
48578;SDS011;34357;51.948;6.132;2023-08-06T13:01:44;8.63;;;6.43;;
48578;SDS011;34357;51.948;6.132;2023-08-06T13:04:10;9.65;;;6.57;;
48578;SDS011;34357;51.948;6.132;2023-08-06T13:06:36;8.63;;;6.00;;
48578;SDS011;34357;51.948;6.132;2023-08-06T13:09:04;8.70;;;5.88;;
48578;SDS011;34357;51.948;6.132;2023-08-06T13:11:31;6.38;;;5.35;;
48578;SDS011;34357;51.948;6.132;2023-08-06T13:14:03;9.32;;;5.70;;
48578;SDS011;34357;51.948;6.132;2023-08-06T13:16:30;6.32;;;4.80;;
48578;SDS011;34357;51.948;6.132;2023-08-06T13:18:56;9.95;;;5.88;;
48578;SDS011;34357;51.948;6.132;2023-08-06T13:21:21;7.78;;;6.40;;
48578;SDS011;34357;51.948;6.132;2023-08-06T13:23:47;8.85;;;6.22;;
48578;SDS011;34357;51.948;6.132;2023-08-06T13:26:13;8.07;;;5.35;;
48578;SDS011;34357;51.948;6.132;2023-08-06T13:28:40;9.98;;;5.05;;
48578;SDS011;34357;51.948;6.132;2023-08-06T13:31:07;7.38;;;5.28;;
48578;SDS011;34357;51.948;6.132;2023-08-06T13:33:33;10.50;;;5.35;;
48578;SDS011;34357;51.948;6.132;2023-08-06T13:35:58;6.70;;;5.22;;
48578;SDS011;34357;51.948;6.132;2023-08-06T13:38:24;7.93;;;5.93;;
48578;SDS011;34357;51.948;6.132;2023-08-06T13:40:50;8.55;;;5.40;;
48578;SDS011;34357;51.948;6.132;2023-08-06T13:43:15;10.45;;;5.95;;
48578;SDS011;34357;51.948;6.132;2023-08-06T13:45:44;10.40;;;6.28;;
48578;SDS011;34357;51.948;6.132;2023-08-06T13:48:09;9.57;;;6.97;;
48578;SDS011;34357;51.948;6.132;2023-08-06T13:50:35;9.00;;;6.50;;
48578;SDS011;34357;51.948;6.132;2023-08-06T13:53:02;8.27;;;6.18;;
48578;SDS011;34357;51.948;6.132;2023-08-06T13:55:28;9.00;;;6.38;;
48578;SDS011;34357;51.948;6.132;2023-08-06T13:57:54;10.95;;;7.38;;
48578;SDS011;34357;51.948;6.132;2023-08-06T14:00:20;11.15;;;6.65;;
48578;SDS011;34357;51.948;6.132;2023-08-06T14:02:46;10.90;;;6.55;;
48578;SDS011;34357;51.948;6.132;2023-08-06T14:05:11;12.77;;;6.45;;
48578;SDS011;34357;51.948;6.132;2023-08-06T14:07:38;7.97;;;5.57;;
48578;SDS011;34357;51.948;6.132;2023-08-06T14:10:04;9.40;;;6.53;;
48578;SDS011;34357;51.948;6.132;2023-08-06T14:12:30;10.43;;;6.55;;
48578;SDS011;34357;51.948;6.132;2023-08-06T14:14:56;10.55;;;6.57;;
48578;SDS011;34357;51.948;6.132;2023-08-06T14:17:22;9.68;;;5.60;;
48578;SDS011;34357;51.948;6.132;2023-08-06T14:19:48;8.60;;;5.68;;
48578;SDS011;34357;51.948;6.132;2023-08-06T14:22:13;10.50;;;5.63;;
48578;SDS011;34357;51.948;6.132;2023-08-06T14:24:39;7.40;;;5.53;;
48578;SDS011;34357;51.948;6.132;2023-08-06T14:27:05;10.65;;;6.20;;
48578;SDS011;34357;51.948;6.132;2023-08-06T14:29:31;10.68;;;6.20;;
48578;SDS011;34357;51.948;6.132;2023-08-06T14:31:57;8.80;;;5.95;;
48578;SDS011;34357;51.948;6.132;2023-08-06T14:34:23;9.77;;;6.53;;
48578;SDS011;34357;51.948;6.132;2023-08-06T14:36:48;7.70;;;6.47;;
48578;SDS011;34357;51.948;6.132;2023-08-06T14:39:14;9.05;;;6.43;;